createdAt,value
2022-09-22T00:01:23.979Z,101175.88
2022-09-22T00:03:55.421Z,101173.28
2022-09-22T00:06:25.870Z,101181.88
2022-09-22T00:08:56.399Z,101115.25
2022-09-22T00:11:33.544Z,101177.56
2022-09-22T00:14:08.419Z,101174.06
2022-09-22T00:16:40.694Z,101167.91
2022-09-22T00:19:14.284Z,101175.72
2022-09-22T00:21:41.295Z,101150.63
2022-09-22T00:24:08.674Z,101127.25
2022-09-22T00:26:36.938Z,101155.06
2022-09-22T00:29:05.471Z,101169.75
2022-09-22T00:31:32.674Z,101180.91
2022-09-22T00:33:59.840Z,101179.22
2022-09-22T00:36:28.664Z,101172.34
2022-09-22T00:38:57.733Z,101181.00
2022-09-22T00:41:35.344Z,101175.88
2022-09-22T00:44:27.116Z,101170.75
2022-09-22T00:47:01.658Z,101169.06
2022-09-22T00:49:47.031Z,101171.75
2022-09-22T00:52:20.021Z,101125.84
2022-09-22T00:54:48.634Z,101170.94
2022-09-22T00:57:24.446Z,101171.00
2022-09-22T00:59:53.906Z,101120.78
2022-09-22T01:02:21.440Z,101165.88
2022-09-22T01:04:51.681Z,101118.25
2022-09-22T01:07:22.005Z,101165.88
2022-09-22T01:09:49.467Z,101163.34
2022-09-22T01:12:16.564Z,101166.75
2022-09-22T01:14:59.322Z,101164.16
2022-09-22T01:17:51.844Z,101166.63
2022-09-22T01:20:37.451Z,101157.06
2022-09-22T01:23:52.273Z,101153.50
2022-09-22T01:26:36.582Z,101163.97
2022-09-22T01:29:41.161Z,101170.84
2022-09-22T01:32:29.742Z,101165.75
2022-09-22T01:35:15.133Z,101109.44
2022-09-22T01:38:04.935Z,101160.63
2022-09-22T01:40:43.055Z,101162.34
2022-09-22T01:43:18.972Z,101160.66
2022-09-22T01:45:48.691Z,101160.69
2022-09-22T01:48:24.172Z,101155.53
2022-09-22T01:50:57.371Z,101137.31
2022-09-22T01:53:30.301Z,101098.34
2022-09-22T01:56:06.063Z,101141.63
2022-09-22T01:58:37.164Z,101141.66
2022-09-22T02:01:14.304Z,101154.63
2022-09-22T02:03:57.503Z,101153.72
2022-09-22T02:06:33.329Z,101141.63
2022-09-22T02:09:06.344Z,101151.09
2022-09-22T02:11:34.282Z,101151.09
2022-09-22T02:14:02.944Z,101106.06
2022-09-22T02:16:31.458Z,101127.69
2022-09-22T02:19:21.153Z,101150.28
2022-09-22T02:21:49.512Z,101158.88
2022-09-22T02:24:31.521Z,101158.06
2022-09-22T02:27:01.103Z,101153.69
2022-09-22T02:29:34.482Z,101149.38
2022-09-22T02:32:06.594Z,101155.38
2022-09-22T02:34:34.240Z,101126.78
2022-09-22T02:37:27.240Z,101159.72
2022-09-22T02:40:11.816Z,101154.53
2022-09-22T02:43:08.160Z,101158.84
2022-09-22T02:45:46.103Z,101145.06
2022-09-22T02:48:21.635Z,101143.28
2022-09-22T02:50:48.586Z,101151.91
2022-09-22T02:53:18.536Z,101151.00
2022-09-22T02:55:47.161Z,101084.41
2022-09-22T02:58:16.231Z,101152.72
2022-09-22T03:00:45.561Z,101096.47
2022-09-22T03:03:12.820Z,101154.41
2022-09-22T03:05:40.163Z,101077.38
2022-09-22T03:08:07.864Z,101142.34
2022-09-22T03:10:35.034Z,101144.03
2022-09-22T03:13:16.078Z,101150.97
2022-09-22T03:15:48.393Z,101150.13
2022-09-22T03:18:15.795Z,101140.53
2022-09-22T03:20:43.080Z,101145.81
2022-09-22T03:23:10.521Z,101142.31
2022-09-22T03:25:37.986Z,101143.25
2022-09-22T03:28:05.450Z,101141.53
2022-09-22T03:30:32.923Z,101122.38
2022-09-22T03:32:59.992Z,101143.19
2022-09-22T03:35:27.135Z,101132.72
2022-09-22T03:37:54.093Z,101145.72
2022-09-22T03:40:22.860Z,101118.00
2022-09-22T03:42:50.192Z,101148.31
2022-09-22T03:45:17.322Z,101139.63
2022-09-22T03:47:44.641Z,101146.56
2022-09-22T03:50:12.094Z,101132.66
2022-09-22T03:52:40.401Z,101097.94
2022-09-22T03:55:08.415Z,101151.66
2022-09-22T03:57:35.481Z,101148.13
2022-09-22T04:00:03.894Z,101157.63
2022-09-22T04:02:38.924Z,101155.06
2022-09-22T04:05:06.544Z,101153.25
2022-09-22T04:07:33.854Z,101156.72
2022-09-22T04:10:02.279Z,101157.63
2022-09-22T04:12:29.701Z,101110.75
2022-09-22T04:14:56.990Z,101147.97
2022-09-22T04:17:24.164Z,101153.97
2022-09-22T04:19:51.332Z,101116.63
2022-09-22T04:22:18.317Z,101098.38
2022-09-22T04:24:45.311Z,101135.59
2022-09-22T04:27:20.927Z,101158.25
2022-09-22T04:29:49.340Z,101160.78
2022-09-22T04:32:18.016Z,101160.03
2022-09-22T04:34:45.495Z,101159.13
2022-09-22T04:37:12.640Z,101156.59
2022-09-22T04:39:39.746Z,101135.75
2022-09-22T04:42:09.184Z,101155.69
2022-09-22T04:44:36.610Z,101153.09
2022-09-22T04:47:04.929Z,101160.03
2022-09-22T04:49:32.100Z,101156.56
2022-09-22T04:51:59.581Z,101134.13
2022-09-22T04:54:26.582Z,101122.88
2022-09-22T04:56:53.770Z,101103.78
2022-09-22T04:59:20.869Z,101151.47
2022-09-22T05:01:47.921Z,101155.81
2022-09-22T05:04:15.101Z,101104.72
2022-09-22T05:06:42.459Z,101155.88
2022-09-22T05:09:09.573Z,101161.97
2022-09-22T05:11:36.905Z,101151.53
2022-09-22T05:14:04.021Z,101167.16
2022-09-22T05:16:31.706Z,101161.97
2022-09-22T05:18:58.840Z,101167.97
2022-09-22T05:21:25.985Z,101163.78
2022-09-22T05:23:53.312Z,101165.53
2022-09-22T05:26:20.571Z,101168.97
2022-09-22T05:28:47.607Z,101166.50
2022-09-22T05:31:14.606Z,101170.78
2022-09-22T05:33:41.906Z,101165.69
2022-09-22T05:36:08.972Z,101165.69
2022-09-22T05:38:36.180Z,101172.63
2022-09-22T05:41:03.905Z,101110.28
2022-09-22T05:43:31.073Z,101049.63
2022-09-22T05:45:58.181Z,101174.47
2022-09-22T05:48:28.890Z,101172.72
2022-09-22T05:50:58.180Z,101173.59
2022-09-22T05:53:25.192Z,101181.38
2022-09-22T05:55:52.520Z,101108.69
2022-09-22T05:58:20.799Z,101182.28
2022-09-22T06:00:48.047Z,101183.16
2022-09-22T06:03:15.438Z,101184.91
2022-09-22T06:05:44.938Z,101171.97
2022-09-22T06:08:12.271Z,101174.59
2022-09-22T06:10:40.071Z,101182.44
2022-09-22T06:13:10.173Z,101185.09
2022-09-22T06:15:38.817Z,101191.19
2022-09-22T06:18:13.181Z,101186.94
2022-09-22T06:20:42.950Z,101133.25
2022-09-22T06:23:10.630Z,101190.38
2022-09-22T06:25:37.651Z,101111.63
2022-09-22T06:28:07.042Z,101186.97
2022-09-22T06:30:35.787Z,101194.84
2022-09-22T06:33:03.193Z,101146.38
2022-09-22T06:35:37.935Z,101178.41
2022-09-22T06:38:06.906Z,101146.44
2022-09-22T06:40:38.198Z,101159.50
2022-09-22T06:43:13.136Z,101188.94
2022-09-22T06:45:41.638Z,101187.28
2022-09-22T06:48:10.987Z,101187.38
2022-09-22T06:50:41.229Z,101192.56
2022-09-22T06:53:12.018Z,101196.91
2022-09-22T06:55:41.760Z,101194.38
2022-09-22T06:58:09.478Z,101194.41
2022-09-22T07:00:37.451Z,101204.78
2022-09-22T07:03:26.481Z,101175.41
2022-09-22T07:06:01.365Z,101180.69
2022-09-22T07:08:30.970Z,101192.88
2022-09-22T07:11:02.070Z,101201.56
2022-09-22T07:13:31.451Z,101186.91
2022-09-22T07:16:03.442Z,101124.63
2022-09-22T07:18:31.461Z,101070.22
2022-09-22T07:21:12.975Z,101193.13
2022-09-22T07:23:41.110Z,101197.47
2022-09-22T07:26:15.058Z,101194.03
2022-09-22T07:28:42.677Z,101198.41
2022-09-22T07:31:12.806Z,101166.41
2022-09-22T07:33:42.851Z,101176.78
2022-09-22T07:36:14.539Z,101193.25
2022-09-22T07:38:44.284Z,101182.91
2022-09-22T07:41:15.782Z,101191.56
2022-09-22T07:43:42.982Z,101179.47
2022-09-22T07:46:10.144Z,101207.16
2022-09-22T07:48:38.039Z,101196.78
2022-09-22T07:51:12.872Z,101182.09
2022-09-22T07:53:41.613Z,101191.66
2022-09-22T07:56:15.230Z,101184.69
2022-09-22T07:58:48.346Z,101129.38
2022-09-22T08:01:15.850Z,101181.22
2022-09-22T08:03:43.439Z,101188.06
2022-09-22T08:06:11.728Z,101181.09
2022-09-22T08:08:42.413Z,101174.91
2022-09-22T08:11:18.138Z,101175.69
2022-09-22T08:13:57.475Z,101180.78
2022-09-22T08:16:29.188Z,101175.53
2022-09-22T08:19:02.672Z,101186.66
2022-09-22T08:21:35.655Z,101173.50
2022-09-22T08:24:07.914Z,101131.06
2022-09-22T08:26:38.081Z,101182.72
2022-09-22T08:29:06.971Z,101178.19
2022-09-22T08:31:36.045Z,101171.09
2022-09-22T08:34:06.619Z,101137.31
2022-09-22T08:36:33.821Z,101181.19
2022-09-22T08:39:02.163Z,101139.84
2022-09-22T08:41:32.169Z,101178.69
2022-09-22T08:44:03.796Z,101122.59
2022-09-22T08:46:37.492Z,101179.34
2022-09-22T08:49:54.271Z,101170.38
2022-09-22T08:52:42.891Z,101162.19
2022-09-22T08:55:24.120Z,101174.94
2022-09-22T08:58:46.782Z,101159.06
2022-09-22T09:01:41.427Z,101159.66
2022-09-22T09:04:19.009Z,101164.81
2022-09-22T09:06:52.839Z,101106.25
2022-09-22T09:09:31.569Z,101165.84
2022-09-22T09:12:06.325Z,101167.91
2022-09-22T09:15:17.516Z,101154.53
2022-09-22T09:17:47.971Z,101110.69
2022-09-22T09:20:19.628Z,101170.16
2022-09-22T09:22:55.619Z,101162.94
2022-09-22T09:25:37.442Z,101157.63
2022-09-22T09:28:13.535Z,101169.72
2022-09-22T09:30:48.889Z,101167.84
2022-09-22T09:33:26.692Z,101160.75
2022-09-22T09:35:54.035Z,101138.25
2022-09-22T09:38:35.883Z,101160.59
2022-09-22T09:41:16.173Z,101157.13
2022-09-22T09:43:45.107Z,101156.94
2022-09-22T09:46:50.989Z,101153.28
2022-09-22T09:49:21.668Z,101160.06
2022-09-22T09:51:54.277Z,101159.94
2022-09-22T09:54:21.517Z,101142.56
2022-09-22T09:57:08.108Z,101153.69
2022-09-22T09:59:56.011Z,101118.38
2022-09-22T10:02:28.850Z,101152.41
2022-09-22T10:05:00.380Z,101149.59
2022-09-22T10:10:30.446Z,101143.13
2022-09-22T10:13:00.628Z,101147.34
2022-09-22T10:15:27.772Z,101148.59
2022-09-22T10:17:54.963Z,101150.03
2022-09-22T10:20:34.150Z,101146.34
2022-09-22T10:23:34.337Z,101148.69
2022-09-22T10:26:18.831Z,101154.25
2022-09-22T10:28:50.563Z,101107.97
2022-09-22T10:31:26.246Z,101142.66
2022-09-22T10:33:59.164Z,101154.06
2022-09-22T10:36:29.363Z,101115.38
2022-09-22T10:38:59.630Z,101155.16
2022-09-22T10:41:31.995Z,101150.00
2022-09-22T10:44:15.538Z,101148.28
2022-09-22T10:46:58.666Z,101126.78
2022-09-22T10:49:37.485Z,101155.25
2022-09-22T10:52:27.532Z,101150.94
2022-09-22T10:55:09.657Z,101144.88
2022-09-22T10:58:09.274Z,101107.78
2022-09-22T11:00:39.646Z,101138.81
2022-09-22T11:03:09.726Z,101144.91
2022-09-22T11:06:25.049Z,101117.31
2022-09-22T11:09:49.290Z,101113.53
2022-09-22T11:12:29.167Z,101135.94
2022-09-22T11:15:08.126Z,101102.06
2022-09-22T11:18:20.807Z,101124.56
2022-09-22T11:21:13.921Z,101119.56
2022-09-22T11:24:06.126Z,101126.72
2022-09-22T11:26:36.255Z,101124.31
2022-09-22T11:29:11.866Z,101125.31
2022-09-22T11:32:00.134Z,101101.25
2022-09-22T11:34:51.644Z,101128.88
2022-09-22T11:37:40.771Z,101109.03
2022-09-22T11:40:17.486Z,101116.59
2022-09-22T11:43:27.301Z,101114.84
2022-09-22T11:45:54.659Z,101120.78
2022-09-22T11:48:59.149Z,101117.34
2022-09-22T11:51:47.601Z,101118.09
2022-09-22T11:54:33.287Z,101114.63
2022-09-22T11:57:14.544Z,101112.13
2022-09-22T12:00:00.462Z,101115.63
2022-09-22T12:02:32.721Z,101113.03
2022-09-22T12:05:05.292Z,101087.13
2022-09-22T12:07:45.120Z,101111.22
2022-09-22T12:10:23.250Z,101106.00
2022-09-22T12:12:52.001Z,101102.59
2022-09-22T12:15:37.195Z,101102.66
2022-09-22T12:18:14.232Z,101101.84
2022-09-22T12:21:04.101Z,101099.41
2022-09-22T12:23:41.507Z,101088.28
2022-09-22T12:26:25.422Z,101066.78
2022-09-22T12:28:52.770Z,101035.81
2022-09-22T12:31:21.456Z,101065.19
2022-09-22T12:33:53.172Z,101055.81
2022-09-22T12:36:36.541Z,101077.41
2022-09-22T12:39:24.461Z,101103.38
2022-09-22T12:41:59.003Z,101101.69
2022-09-22T12:44:30.590Z,101095.66
2022-09-22T12:47:04.606Z,101099.09
2022-09-22T12:49:32.178Z,101099.97
2022-09-22T12:51:59.511Z,101054.13
2022-09-22T12:54:29.219Z,101092.88
2022-09-22T12:57:00.185Z,101096.25
2022-09-22T12:59:36.419Z,101093.59
2022-09-22T13:02:41.600Z,101053.09
2022-09-22T13:05:12.030Z,101091.75
2022-09-22T13:07:40.156Z,101096.16
2022-09-22T13:10:22.887Z,101091.84
2022-09-22T13:13:09.916Z,101092.75
2022-09-22T13:15:46.372Z,101096.25
2022-09-22T13:18:33.725Z,101091.88
2022-09-22T13:21:03.673Z,101087.53
2022-09-22T13:23:30.908Z,101085.72
2022-09-22T13:26:06.989Z,101089.09
2022-09-22T13:28:34.341Z,101089.84
2022-09-22T13:31:29.285Z,101067.44
2022-09-22T13:33:56.620Z,101080.25
2022-09-22T13:36:25.559Z,101087.19
2022-09-22T13:38:59.402Z,101040.59
2022-09-22T13:41:37.390Z,101080.03
2022-09-22T13:44:12.166Z,101066.28
2022-09-22T13:46:51.230Z,101067.09
2022-09-22T13:49:34.016Z,101064.53
2022-09-22T13:52:07.630Z,101073.34
2022-09-22T13:54:38.031Z,101053.56
2022-09-22T13:57:16.031Z,101075.16
2022-09-22T13:59:44.081Z,101080.41
2022-09-22T14:02:13.640Z,101043.41
2022-09-22T14:04:58.019Z,101083.97
2022-09-22T14:07:30.207Z,101039.25
2022-09-22T14:09:59.799Z,101077.13
2022-09-22T14:12:29.332Z,101074.56
2022-09-22T14:14:56.677Z,101078.06
2022-09-22T14:17:28.963Z,101079.78
2022-09-22T14:20:03.162Z,101068.50
2022-09-22T14:22:40.769Z,101080.63
2022-09-22T14:25:22.712Z,101068.50
2022-09-22T14:27:58.995Z,101071.84
2022-09-22T14:30:30.430Z,101068.41
2022-09-22T14:33:01.759Z,101075.31
2022-09-22T14:35:36.664Z,101072.75
2022-09-22T14:38:17.211Z,101064.94
2022-09-22T14:40:56.732Z,101068.44
2022-09-22T14:43:27.926Z,101059.78
2022-09-22T14:46:01.714Z,101034.03
2022-09-22T14:48:33.527Z,101061.72
2022-09-22T14:51:07.804Z,101060.91
2022-09-22T14:53:44.244Z,101056.63
2022-09-22T14:56:23.196Z,101024.06
2022-09-22T14:58:53.519Z,101061.97
2022-09-22T15:01:47.878Z,101063.72
2022-09-22T15:04:39.277Z,101045.53
2022-09-22T15:07:07.680Z,101052.41
2022-09-22T15:09:43.071Z,101051.47
2022-09-22T15:12:48.687Z,101026.38
2022-09-22T15:15:19.384Z,101047.03
2022-09-22T15:18:10.695Z,101042.75
2022-09-22T15:20:56.003Z,101022.88
2022-09-22T15:23:41.467Z,101027.22
2022-09-22T15:26:24.119Z,101039.28
2022-09-22T15:28:54.096Z,101042.75
2022-09-22T15:31:28.409Z,101038.44
2022-09-22T15:33:57.319Z,101042.84
2022-09-22T15:36:26.058Z,101039.44
2022-09-22T15:38:59.542Z,100982.59
2022-09-22T15:41:27.823Z,101038.53
2022-09-22T15:43:55.217Z,100984.25
2022-09-22T15:46:34.336Z,101015.25
2022-09-22T15:49:10.141Z,101044.59
2022-09-22T15:51:37.562Z,101036.75
2022-09-22T15:54:13.301Z,100991.13
2022-09-22T15:56:42.115Z,101044.56
2022-09-22T15:59:20.131Z,101047.97
2022-09-22T16:01:47.703Z,101031.63
2022-09-22T16:04:15.418Z,101053.19
2022-09-22T16:06:48.507Z,100931.91
2022-09-22T16:09:17.703Z,101022.19
2022-09-22T16:11:45.235Z,101049.75
2022-09-22T16:14:12.702Z,101055.84
2022-09-22T16:16:39.880Z,101048.06
2022-09-22T16:19:09.654Z,101053.34
2022-09-22T16:21:40.788Z,101049.84
2022-09-22T16:24:10.687Z,101048.22
2022-09-22T16:26:40.125Z,101051.69
2022-09-22T16:29:08.594Z,101056.97
2022-09-22T16:31:37.496Z,101063.06
2022-09-22T16:34:06.767Z,101062.31
2022-09-22T16:36:36.503Z,101058.84
2022-09-22T16:39:05.046Z,101062.34
2022-09-22T16:41:34.096Z,101052.06
2022-09-22T16:44:02.166Z,101062.44
2022-09-22T16:46:30.680Z,101060.75
2022-09-22T16:49:04.684Z,101058.22
2022-09-22T16:51:33.865Z,101060.81
2022-09-22T16:54:01.235Z,101052.28
2022-09-22T16:56:30.457Z,101063.50
2022-09-22T16:58:57.690Z,101061.78
2022-09-22T17:01:24.999Z,101064.38
2022-09-22T17:03:55.136Z,101055.75
2022-09-22T17:06:25.485Z,101057.53
2022-09-22T17:08:53.243Z,101061.00
2022-09-22T17:11:23.615Z,101057.56
2022-09-22T17:13:50.970Z,101066.28
2022-09-22T17:16:25.339Z,101063.69
2022-09-22T17:18:53.202Z,101058.50
2022-09-22T17:21:24.529Z,101055.94
2022-09-22T17:23:54.303Z,101055.09
2022-09-22T17:26:21.790Z,101054.28
2022-09-22T17:28:51.194Z,101060.34
2022-09-22T17:31:19.264Z,101035.34
2022-09-22T17:33:52.140Z,101011.25
2022-09-22T17:36:21.528Z,101056.09
2022-09-22T17:38:51.306Z,101057.00
2022-09-22T17:41:20.593Z,101064.81
2022-09-22T17:43:53.484Z,101034.69
2022-09-22T17:46:20.757Z,101054.53
2022-09-22T17:49:07.278Z,101039.06
2022-09-22T17:51:55.903Z,101066.69
2022-09-22T17:54:49.923Z,101071.91
2022-09-22T17:57:19.943Z,101070.19
2022-09-22T17:59:47.529Z,101044.38
2022-09-22T18:02:16.939Z,101081.50
2022-09-22T18:04:45.057Z,101062.56
2022-09-22T18:07:23.536Z,101015.13
2022-09-22T18:09:52.055Z,101077.25
2022-09-22T18:12:21.678Z,101012.63
2022-09-22T18:14:55.647Z,101016.09
2022-09-22T18:17:27.446Z,101067.88
2022-09-22T18:19:56.153Z,100954.88
2022-09-22T18:22:25.064Z,101089.47
2022-09-22T18:24:56.801Z,101092.97
2022-09-22T18:27:27.508Z,101030.88
2022-09-22T18:29:58.853Z,101086.13
2022-09-22T18:32:27.810Z,101064.53
2022-09-22T18:34:55.830Z,101081.81
2022-09-22T18:37:24.915Z,101085.28
2022-09-22T18:39:52.188Z,101068.91
2022-09-22T18:42:21.606Z,101066.31
2022-09-22T18:44:49.061Z,101079.28
2022-09-22T18:47:21.295Z,101098.31
2022-09-22T18:49:50.323Z,101097.44
2022-09-22T18:52:21.779Z,101100.88
2022-09-22T18:54:49.230Z,101100.00
2022-09-22T18:57:16.419Z,101098.28
2022-09-22T18:59:43.738Z,101094.84
2022-09-22T19:02:12.026Z,101094.84
2022-09-22T19:04:39.573Z,101096.56
2022-09-22T19:07:25.543Z,101096.56
2022-09-22T19:09:53.279Z,101095.72
2022-09-22T19:12:21.821Z,101049.94
2022-09-22T19:14:57.646Z,101029.22
2022-09-22T19:17:24.847Z,101105.22
2022-09-22T19:19:52.389Z,101091.38
2022-09-22T19:22:20.577Z,101098.28
2022-09-22T19:24:48.226Z,101102.59
2022-09-22T19:27:17.937Z,101096.56
2022-09-22T19:29:45.318Z,101095.69
2022-09-22T19:32:12.847Z,101098.28
2022-09-22T19:34:40.345Z,101093.09
2022-09-22T19:37:07.753Z,101100.00
2022-09-22T19:39:36.503Z,101096.53
2022-09-22T19:42:03.757Z,101052.50
2022-09-22T19:44:32.774Z,101086.16
2022-09-22T19:46:59.994Z,101101.69
2022-09-22T19:49:27.128Z,101092.19
2022-09-22T19:51:54.476Z,101110.31
2022-09-22T19:54:21.912Z,101103.38
2022-09-22T19:56:50.538Z,101098.19
2022-09-22T19:59:19.945Z,101102.50
2022-09-22T20:01:48.270Z,101048.06
2022-09-22T20:04:18.915Z,101113.72
2022-09-22T20:06:49.052Z,100984.09
2022-09-22T20:09:19.052Z,101078.28
2022-09-22T20:11:49.762Z,101107.66
2022-09-22T20:14:23.030Z,101080.88
2022-09-22T20:17:09.666Z,101066.19
2022-09-22T20:19:40.741Z,101113.72
2022-09-22T20:22:28.293Z,101106.75
2022-09-22T20:24:58.223Z,101115.41
2022-09-22T20:27:29.381Z,101121.41
2022-09-22T20:29:57.651Z,101018.50
2022-09-22T20:32:26.877Z,101053.03
2022-09-22T20:34:55.781Z,101113.56
2022-09-22T20:37:25.130Z,101108.38
2022-09-22T20:39:52.647Z,101103.16
2022-09-22T20:42:20.134Z,101109.22
2022-09-22T20:44:47.360Z,100988.19
2022-09-22T20:47:17.343Z,101043.53
2022-09-22T20:49:49.239Z,101099.72
2022-09-22T20:52:20.494Z,101103.19
2022-09-22T20:54:48.886Z,101098.88
2022-09-22T20:57:16.395Z,101087.53
2022-09-22T20:59:46.298Z,101085.81
2022-09-22T21:02:15.212Z,101096.19
2022-09-22T21:04:42.498Z,101087.47
2022-09-22T21:07:11.628Z,101096.09
2022-09-22T21:09:57.991Z,101040.75
2022-09-22T21:12:31.125Z,101013.16
2022-09-22T21:14:59.056Z,101093.56
2022-09-22T21:17:28.174Z,101092.66
2022-09-22T21:19:57.278Z,101083.94
2022-09-22T21:22:25.588Z,101087.41
2022-09-22T21:24:52.762Z,100994.84
2022-09-22T21:27:20.409Z,101094.22
2022-09-22T21:29:47.641Z,101054.41
2022-09-22T21:32:14.849Z,101090.72
2022-09-22T21:34:43.298Z,101101.91
2022-09-22T21:37:10.621Z,101092.38
2022-09-22T21:39:37.766Z,101076.84
2022-09-22T21:42:04.917Z,100999.81
2022-09-22T21:44:32.056Z,101099.22
2022-09-22T21:46:59.595Z,101094.00
2022-09-22T21:49:26.836Z,101035.22
2022-09-22T21:51:53.894Z,101099.22
2022-09-22T21:54:21.130Z,101094.00
2022-09-22T21:56:50.854Z,101089.66
2022-09-22T21:59:18.167Z,101087.03
2022-09-22T22:01:45.423Z,101092.19
2022-09-22T22:04:17.835Z,101029.03
2022-09-22T22:06:46.211Z,101012.47
2022-09-22T22:09:16.226Z,101086.06
2022-09-22T22:11:55.788Z,101083.47
2022-09-22T22:14:25.103Z,101086.03
2022-09-22T22:16:55.207Z,101084.28
2022-09-22T22:19:26.086Z,101087.75
2022-09-22T22:21:54.055Z,101076.53
2022-09-22T22:24:41.044Z,101083.47
2022-09-22T22:27:10.404Z,101085.19
2022-09-22T22:29:39.323Z,101059.31
2022-09-22T22:32:09.142Z,101078.31
2022-09-22T22:34:36.831Z,101073.13
2022-09-22T22:37:07.250Z,101079.94
2022-09-22T22:39:34.408Z,101083.31
2022-09-22T22:42:01.696Z,101079.03
2022-09-22T22:44:28.826Z,101069.47
2022-09-22T22:46:55.995Z,101065.06
2022-09-22T22:49:23.333Z,101018.41
2022-09-22T22:51:52.498Z,101062.53
2022-09-22T22:54:19.792Z,101074.63
2022-09-22T22:56:50.918Z,101062.50
2022-09-22T22:59:19.337Z,101031.34
2022-09-22T23:01:46.672Z,101072.88
2022-09-22T23:04:13.857Z,101071.16
2022-09-22T23:06:44.470Z,101069.50
2022-09-22T23:09:14.302Z,101072.06
2022-09-22T23:11:42.667Z,101067.72
2022-09-22T23:14:13.046Z,101067.72
2022-09-22T23:16:46.890Z,101056.53
2022-09-22T23:19:17.228Z,101040.06
2022-09-22T23:21:46.076Z,101062.53
2022-09-22T23:24:19.413Z,101059.97
2022-09-22T23:26:46.745Z,101040.00
2022-09-22T23:29:13.910Z,101004.53
2022-09-22T23:31:41.044Z,101001.91
2022-09-22T23:34:08.179Z,101043.47
2022-09-22T23:36:35.441Z,101045.22
2022-09-22T23:39:04.459Z,101046.94
2022-09-22T23:41:36.547Z,101039.16
2022-09-22T23:44:07.832Z,101036.56
2022-09-22T23:46:35.173Z,101020.03
2022-09-22T23:49:02.680Z,101035.59
2022-09-22T23:51:30.568Z,101033.00
2022-09-22T23:53:58.416Z,101032.09
2022-09-22T23:56:25.871Z,101031.19
2022-09-22T23:58:53.452Z,101027.69
